sensor_id;sensor_type;location;lat;lon;timestamp;P1;durP1;ratioP1;P2;durP2;ratioP2
5702;SDS011;2876;51.738;10.050;2022-11-30T00:00:56;46.67;;;23.03;;
5702;SDS011;2876;51.738;10.050;2022-11-30T00:06:59;46.20;;;24.40;;
5702;SDS011;2876;51.738;10.050;2022-11-30T00:13:01;29.83;;;18.60;;
5702;SDS011;2876;51.738;10.050;2022-11-30T00:19:05;33.77;;;19.30;;
5702;SDS011;2876;51.738;10.050;2022-11-30T00:25:07;30.93;;;19.33;;
5702;SDS011;2876;51.738;10.050;2022-11-30T00:31:13;38.83;;;20.00;;
5702;SDS011;2876;51.738;10.050;2022-11-30T00:37:18;32.60;;;18.47;;
5702;SDS011;2876;51.738;10.050;2022-11-30T00:43:21;32.30;;;18.43;;
5702;SDS011;2876;51.738;10.050;2022-11-30T00:49:23;35.23;;;20.67;;
5702;SDS011;2876;51.738;10.050;2022-11-30T00:55:25;36.30;;;19.37;;
5702;SDS011;2876;51.738;10.050;2022-11-30T01:01:31;41.00;;;21.20;;
5702;SDS011;2876;51.738;10.050;2022-11-30T01:07:33;60.27;;;24.10;;
5702;SDS011;2876;51.738;10.050;2022-11-30T01:13:35;43.07;;;21.50;;
5702;SDS011;2876;51.738;10.050;2022-11-30T01:19:37;47.73;;;21.83;;
5702;SDS011;2876;51.738;10.050;2022-11-30T01:25:39;45.23;;;19.13;;
5702;SDS011;2876;51.738;10.050;2022-11-30T01:31:40;52.27;;;20.33;;
5702;SDS011;2876;51.738;10.050;2022-11-30T01:37:42;42.80;;;20.40;;
5702;SDS011;2876;51.738;10.050;2022-11-30T01:49:54;48.87;;;19.80;;
5702;SDS011;2876;51.738;10.050;2022-11-30T01:56:04;44.57;;;19.90;;
5702;SDS011;2876;51.738;10.050;2022-11-30T02:02:19;48.10;;;19.30;;
5702;SDS011;2876;51.738;10.050;2022-11-30T02:08:28;43.03;;;18.70;;
5702;SDS011;2876;51.738;10.050;2022-11-30T02:14:41;46.53;;;17.47;;
5702;SDS011;2876;51.738;10.050;2022-11-30T02:34:28;46.83;;;19.00;;
5702;SDS011;2876;51.738;10.050;2022-11-30T02:40:32;34.77;;;17.33;;
5702;SDS011;2876;51.738;10.050;2022-11-30T02:46:44;36.17;;;17.40;;
5702;SDS011;2876;51.738;10.050;2022-11-30T02:53:13;41.97;;;19.03;;
5702;SDS011;2876;51.738;10.050;2022-11-30T02:59:21;45.13;;;19.40;;
5702;SDS011;2876;51.738;10.050;2022-11-30T03:05:23;36.00;;;18.20;;
5702;SDS011;2876;51.738;10.050;2022-11-30T03:11:34;38.77;;;17.17;;
5702;SDS011;2876;51.738;10.050;2022-11-30T03:17:37;42.50;;;18.07;;
5702;SDS011;2876;51.738;10.050;2022-11-30T03:23:39;42.70;;;18.07;;
5702;SDS011;2876;51.738;10.050;2022-11-30T03:29:41;35.47;;;18.80;;
5702;SDS011;2876;51.738;10.050;2022-11-30T03:36:02;42.60;;;19.03;;
5702;SDS011;2876;51.738;10.050;2022-11-30T03:42:08;34.53;;;16.77;;
5702;SDS011;2876;51.738;10.050;2022-11-30T03:48:11;41.40;;;18.47;;
5702;SDS011;2876;51.738;10.050;2022-11-30T03:54:13;39.73;;;17.10;;
5702;SDS011;2876;51.738;10.050;2022-11-30T04:00:15;34.30;;;16.53;;
5702;SDS011;2876;51.738;10.050;2022-11-30T04:06:17;42.87;;;16.10;;
5702;SDS011;2876;51.738;10.050;2022-11-30T04:12:21;25.43;;;14.13;;
5702;SDS011;2876;51.738;10.050;2022-11-30T04:18:24;30.57;;;13.97;;
5702;SDS011;2876;51.738;10.050;2022-11-30T04:24:28;28.70;;;14.77;;
5702;SDS011;2876;51.738;10.050;2022-11-30T04:30:31;24.97;;;14.30;;
5702;SDS011;2876;51.738;10.050;2022-11-30T04:36:34;26.43;;;13.60;;
5702;SDS011;2876;51.738;10.050;2022-11-30T04:42:39;27.57;;;14.47;;
5702;SDS011;2876;51.738;10.050;2022-11-30T04:55:11;31.33;;;14.50;;
5702;SDS011;2876;51.738;10.050;2022-11-30T05:01:15;23.73;;;12.80;;
5702;SDS011;2876;51.738;10.050;2022-11-30T05:07:20;27.70;;;14.10;;
5702;SDS011;2876;51.738;10.050;2022-11-30T05:13:23;25.13;;;13.73;;
5702;SDS011;2876;51.738;10.050;2022-11-30T05:19:26;23.33;;;13.03;;
5702;SDS011;2876;51.738;10.050;2022-11-30T05:25:28;26.07;;;13.30;;
5702;SDS011;2876;51.738;10.050;2022-11-30T05:31:30;23.20;;;13.00;;
5702;SDS011;2876;51.738;10.050;2022-11-30T05:37:53;28.30;;;13.60;;
5702;SDS011;2876;51.738;10.050;2022-11-30T05:44:09;26.40;;;12.43;;
5702;SDS011;2876;51.738;10.050;2022-11-30T05:50:11;23.60;;;12.67;;
5702;SDS011;2876;51.738;10.050;2022-11-30T05:56:27;19.43;;;10.80;;
5702;SDS011;2876;51.738;10.050;2022-11-30T06:02:29;20.97;;;10.97;;
5702;SDS011;2876;51.738;10.050;2022-11-30T06:08:31;27.80;;;11.90;;
5702;SDS011;2876;51.738;10.050;2022-11-30T06:14:33;26.57;;;11.77;;
5702;SDS011;2876;51.738;10.050;2022-11-30T06:20:36;32.43;;;12.33;;
5702;SDS011;2876;51.738;10.050;2022-11-30T06:26:40;27.47;;;13.30;;
5702;SDS011;2876;51.738;10.050;2022-11-30T06:32:49;22.27;;;11.90;;
5702;SDS011;2876;51.738;10.050;2022-11-30T06:38:52;23.33;;;12.43;;
5702;SDS011;2876;51.738;10.050;2022-11-30T06:44:55;29.73;;;11.43;;
5702;SDS011;2876;51.738;10.050;2022-11-30T06:50:58;16.10;;;10.37;;
5702;SDS011;2876;51.738;10.050;2022-11-30T06:57:05;20.30;;;10.10;;
5702;SDS011;2876;51.738;10.050;2022-11-30T07:03:07;13.10;;;9.20;;
5702;SDS011;2876;51.738;10.050;2022-11-30T07:09:12;15.60;;;8.70;;
5702;SDS011;2876;51.738;10.050;2022-11-30T07:15:14;17.77;;;9.70;;
5702;SDS011;2876;51.738;10.050;2022-11-30T07:21:17;16.77;;;7.87;;
5702;SDS011;2876;51.738;10.050;2022-11-30T07:27:19;15.07;;;8.73;;
5702;SDS011;2876;51.738;10.050;2022-11-30T07:33:21;12.87;;;8.00;;
5702;SDS011;2876;51.738;10.050;2022-11-30T07:39:25;12.67;;;7.70;;
5702;SDS011;2876;51.738;10.050;2022-11-30T07:45:27;14.37;;;8.17;;
5702;SDS011;2876;51.738;10.050;2022-11-30T07:51:29;18.70;;;7.70;;
5702;SDS011;2876;51.738;10.050;2022-11-30T07:57:31;10.77;;;6.87;;
5702;SDS011;2876;51.738;10.050;2022-11-30T08:03:34;13.23;;;8.20;;
5702;SDS011;2876;51.738;10.050;2022-11-30T08:09:37;11.50;;;7.50;;
5702;SDS011;2876;51.738;10.050;2022-11-30T08:15:39;12.10;;;6.97;;
5702;SDS011;2876;51.738;10.050;2022-11-30T08:21:41;11.27;;;7.97;;
5702;SDS011;2876;51.738;10.050;2022-11-30T08:27:43;8.70;;;6.20;;
5702;SDS011;2876;51.738;10.050;2022-11-30T08:33:45;9.43;;;6.53;;
5702;SDS011;2876;51.738;10.050;2022-11-30T08:46:19;10.63;;;6.60;;
5702;SDS011;2876;51.738;10.050;2022-11-30T08:52:45;11.80;;;5.80;;
5702;SDS011;2876;51.738;10.050;2022-11-30T08:58:59;10.60;;;5.60;;
5702;SDS011;2876;51.738;10.050;2022-11-30T09:05:01;9.57;;;6.80;;
5702;SDS011;2876;51.738;10.050;2022-11-30T09:11:23;9.80;;;6.40;;
5702;SDS011;2876;51.738;10.050;2022-11-30T09:17:31;7.27;;;5.70;;
5702;SDS011;2876;51.738;10.050;2022-11-30T09:23:34;10.87;;;5.80;;
5702;SDS011;2876;51.738;10.050;2022-11-30T09:29:49;7.60;;;5.60;;
5702;SDS011;2876;51.738;10.050;2022-11-30T09:36:05;9.27;;;5.13;;
5702;SDS011;2876;51.738;10.050;2022-11-30T09:42:20;8.60;;;4.90;;
5702;SDS011;2876;51.738;10.050;2022-11-30T09:48:50;6.60;;;5.40;;
5702;SDS011;2876;51.738;10.050;2022-11-30T09:55:08;8.23;;;5.97;;
5702;SDS011;2876;51.738;10.050;2022-11-30T10:01:16;10.17;;;7.03;;
5702;SDS011;2876;51.738;10.050;2022-11-30T10:27:10;8.77;;;6.17;;
5702;SDS011;2876;51.738;10.050;2022-11-30T10:33:28;8.70;;;6.87;;
5702;SDS011;2876;51.738;10.050;2022-11-30T10:40:12;9.50;;;7.30;;
5702;SDS011;2876;51.738;10.050;2022-11-30T10:46:42;10.00;;;7.47;;
5702;SDS011;2876;51.738;10.050;2022-11-30T10:53:23;9.97;;;6.97;;
5702;SDS011;2876;51.738;10.050;2022-11-30T10:59:32;8.63;;;6.27;;
5702;SDS011;2876;51.738;10.050;2022-11-30T11:06:13;11.23;;;6.93;;
5702;SDS011;2876;51.738;10.050;2022-11-30T11:12:26;8.30;;;6.50;;
5702;SDS011;2876;51.738;10.050;2022-11-30T11:18:31;8.87;;;6.53;;
5702;SDS011;2876;51.738;10.050;2022-11-30T11:24:44;10.10;;;7.10;;
5702;SDS011;2876;51.738;10.050;2022-11-30T11:30:48;13.87;;;8.00;;
5702;SDS011;2876;51.738;10.050;2022-11-30T11:44:21;10.70;;;8.03;;
5702;SDS011;2876;51.738;10.050;2022-11-30T11:50:23;10.93;;;7.80;;
5702;SDS011;2876;51.738;10.050;2022-11-30T11:56:50;13.30;;;8.50;;
5702;SDS011;2876;51.738;10.050;2022-11-30T12:03:11;10.17;;;7.70;;
5702;SDS011;2876;51.738;10.050;2022-11-30T12:09:42;12.63;;;9.03;;
5702;SDS011;2876;51.738;10.050;2022-11-30T12:22:45;10.03;;;7.33;;
5702;SDS011;2876;51.738;10.050;2022-11-30T12:36:27;14.70;;;9.77;;
5702;SDS011;2876;51.738;10.050;2022-11-30T12:43:23;15.07;;;10.27;;
5702;SDS011;2876;51.738;10.050;2022-11-30T13:15:13;22.30;;;14.63;;
5702;SDS011;2876;51.738;10.050;2022-11-30T13:21:31;22.13;;;14.03;;
5702;SDS011;2876;51.738;10.050;2022-11-30T13:27:48;22.77;;;14.33;;
5702;SDS011;2876;51.738;10.050;2022-11-30T13:34:28;21.90;;;13.70;;
5702;SDS011;2876;51.738;10.050;2022-11-30T13:40:31;25.53;;;13.90;;
5702;SDS011;2876;51.738;10.050;2022-11-30T13:46:33;23.73;;;14.80;;
5702;SDS011;2876;51.738;10.050;2022-11-30T14:05:37;24.17;;;14.67;;
5702;SDS011;2876;51.738;10.050;2022-11-30T14:11:56;20.63;;;14.50;;
5702;SDS011;2876;51.738;10.050;2022-11-30T14:17:57;23.50;;;14.60;;
5702;SDS011;2876;51.738;10.050;2022-11-30T14:24:16;25.00;;;14.90;;
5702;SDS011;2876;51.738;10.050;2022-11-30T14:30:26;22.33;;;13.47;;
5702;SDS011;2876;51.738;10.050;2022-11-30T14:36:33;21.53;;;13.60;;
5702;SDS011;2876;51.738;10.050;2022-11-30T14:42:49;26.20;;;14.13;;
5702;SDS011;2876;51.738;10.050;2022-11-30T14:49:04;25.30;;;14.23;;
5702;SDS011;2876;51.738;10.050;2022-11-30T15:02:10;26.43;;;15.93;;
5702;SDS011;2876;51.738;10.050;2022-11-30T15:15:18;31.77;;;19.77;;
5702;SDS011;2876;51.738;10.050;2022-11-30T15:21:24;41.87;;;27.90;;
5702;SDS011;2876;51.738;10.050;2022-11-30T15:27:38;29.00;;;16.93;;
5702;SDS011;2876;51.738;10.050;2022-11-30T15:33:41;28.73;;;17.47;;
5702;SDS011;2876;51.738;10.050;2022-11-30T15:39:53;35.60;;;18.00;;
5702;SDS011;2876;51.738;10.050;2022-11-30T15:45:58;33.93;;;19.20;;
5702;SDS011;2876;51.738;10.050;2022-11-30T16:11:16;34.13;;;17.13;;
5702;SDS011;2876;51.738;10.050;2022-11-30T16:17:21;32.63;;;16.83;;
5702;SDS011;2876;51.738;10.050;2022-11-30T16:23:23;45.70;;;25.53;;
5702;SDS011;2876;51.738;10.050;2022-11-30T16:29:27;39.87;;;22.43;;
5702;SDS011;2876;51.738;10.050;2022-11-30T16:35:35;61.97;;;30.23;;
5702;SDS011;2876;51.738;10.050;2022-11-30T16:42:11;51.33;;;29.10;;
5702;SDS011;2876;51.738;10.050;2022-11-30T16:48:16;48.90;;;25.80;;
5702;SDS011;2876;51.738;10.050;2022-11-30T16:54:18;99.47;;;50.50;;
5702;SDS011;2876;51.738;10.050;2022-11-30T17:00:21;38.20;;;19.73;;
5702;SDS011;2876;51.738;10.050;2022-11-30T17:06:23;180.40;;;94.63;;
5702;SDS011;2876;51.738;10.050;2022-11-30T17:12:26;52.87;;;28.23;;
5702;SDS011;2876;51.738;10.050;2022-11-30T17:18:28;31.70;;;16.87;;
5702;SDS011;2876;51.738;10.050;2022-11-30T17:24:30;32.20;;;16.50;;
5702;SDS011;2876;51.738;10.050;2022-11-30T17:30:32;31.17;;;18.40;;
5702;SDS011;2876;51.738;10.050;2022-11-30T17:36:43;26.73;;;17.23;;
5702;SDS011;2876;51.738;10.050;2022-11-30T17:42:46;42.50;;;26.03;;
5702;SDS011;2876;51.738;10.050;2022-11-30T17:48:50;40.53;;;21.40;;
5702;SDS011;2876;51.738;10.050;2022-11-30T17:54:52;87.03;;;35.93;;
5702;SDS011;2876;51.738;10.050;2022-11-30T18:00:55;69.87;;;34.07;;
5702;SDS011;2876;51.738;10.050;2022-11-30T18:06:57;58.13;;;27.43;;
5702;SDS011;2876;51.738;10.050;2022-11-30T18:12:59;49.00;;;25.03;;
5702;SDS011;2876;51.738;10.050;2022-11-30T18:19:03;52.20;;;25.80;;
5702;SDS011;2876;51.738;10.050;2022-11-30T18:25:14;56.93;;;25.50;;
5702;SDS011;2876;51.738;10.050;2022-11-30T18:31:17;52.50;;;26.40;;
5702;SDS011;2876;51.738;10.050;2022-11-30T18:37:31;53.40;;;26.10;;
5702;SDS011;2876;51.738;10.050;2022-11-30T18:43:35;54.50;;;25.70;;
5702;SDS011;2876;51.738;10.050;2022-11-30T18:49:38;47.77;;;25.90;;
5702;SDS011;2876;51.738;10.050;2022-11-30T18:55:40;51.97;;;27.07;;
5702;SDS011;2876;51.738;10.050;2022-11-30T19:01:42;59.77;;;28.30;;
5702;SDS011;2876;51.738;10.050;2022-11-30T19:08:03;66.13;;;29.87;;
5702;SDS011;2876;51.738;10.050;2022-11-30T19:14:09;60.30;;;29.40;;
5702;SDS011;2876;51.738;10.050;2022-11-30T19:20:23;68.77;;;30.20;;
5702;SDS011;2876;51.738;10.050;2022-11-30T19:26:25;71.80;;;32.53;;
5702;SDS011;2876;51.738;10.050;2022-11-30T19:32:39;72.83;;;32.20;;
5702;SDS011;2876;51.738;10.050;2022-11-30T19:38:41;68.90;;;32.97;;
5702;SDS011;2876;51.738;10.050;2022-11-30T19:44:44;69.80;;;33.70;;
5702;SDS011;2876;51.738;10.050;2022-11-30T19:51:05;81.47;;;33.70;;
5702;SDS011;2876;51.738;10.050;2022-11-30T19:57:18;78.13;;;35.37;;
5702;SDS011;2876;51.738;10.050;2022-11-30T20:03:20;84.57;;;34.17;;
5702;SDS011;2876;51.738;10.050;2022-11-30T20:09:22;78.53;;;32.90;;
5702;SDS011;2876;51.738;10.050;2022-11-30T20:15:24;87.23;;;35.27;;
5702;SDS011;2876;51.738;10.050;2022-11-30T20:21:40;79.27;;;32.23;;
5702;SDS011;2876;51.738;10.050;2022-11-30T20:27:51;68.77;;;31.50;;
5702;SDS011;2876;51.738;10.050;2022-11-30T20:33:53;78.13;;;35.17;;
5702;SDS011;2876;51.738;10.050;2022-11-30T20:39:56;78.93;;;34.33;;
5702;SDS011;2876;51.738;10.050;2022-11-30T20:46:20;75.13;;;35.20;;
5702;SDS011;2876;51.738;10.050;2022-11-30T20:52:34;103.60;;;37.77;;
5702;SDS011;2876;51.738;10.050;2022-11-30T20:58:36;79.60;;;32.67;;
5702;SDS011;2876;51.738;10.050;2022-11-30T21:04:38;92.03;;;39.60;;
5702;SDS011;2876;51.738;10.050;2022-11-30T21:10:40;126.20;;;47.97;;
5702;SDS011;2876;51.738;10.050;2022-11-30T21:16:42;102.60;;;40.63;;
5702;SDS011;2876;51.738;10.050;2022-11-30T21:22:44;81.13;;;35.47;;
5702;SDS011;2876;51.738;10.050;2022-11-30T21:28:47;84.80;;;39.43;;
5702;SDS011;2876;51.738;10.050;2022-11-30T21:35:16;83.53;;;36.80;;
5702;SDS011;2876;51.738;10.050;2022-11-30T21:41:18;79.30;;;34.93;;
5702;SDS011;2876;51.738;10.050;2022-11-30T21:47:20;80.13;;;34.27;;
5702;SDS011;2876;51.738;10.050;2022-11-30T21:53:22;81.97;;;32.60;;
5702;SDS011;2876;51.738;10.050;2022-11-30T21:59:25;76.60;;;31.73;;
5702;SDS011;2876;51.738;10.050;2022-11-30T22:05:27;69.83;;;31.70;;
5702;SDS011;2876;51.738;10.050;2022-11-30T22:11:32;76.47;;;32.30;;
5702;SDS011;2876;51.738;10.050;2022-11-30T22:17:39;67.37;;;30.53;;
5702;SDS011;2876;51.738;10.050;2022-11-30T22:23:44;75.97;;;32.40;;
5702;SDS011;2876;51.738;10.050;2022-11-30T22:29:54;69.50;;;31.67;;
5702;SDS011;2876;51.738;10.050;2022-11-30T22:35:56;61.00;;;30.53;;
5702;SDS011;2876;51.738;10.050;2022-11-30T22:42:04;60.73;;;27.80;;
5702;SDS011;2876;51.738;10.050;2022-11-30T22:48:06;66.40;;;31.17;;
5702;SDS011;2876;51.738;10.050;2022-11-30T22:54:08;64.80;;;29.17;;
5702;SDS011;2876;51.738;10.050;2022-11-30T23:00:11;56.07;;;28.00;;
5702;SDS011;2876;51.738;10.050;2022-11-30T23:06:15;61.00;;;28.00;;
5702;SDS011;2876;51.738;10.050;2022-11-30T23:12:19;68.63;;;31.83;;
5702;SDS011;2876;51.738;10.050;2022-11-30T23:18:42;85.83;;;33.23;;
5702;SDS011;2876;51.738;10.050;2022-11-30T23:24:54;72.10;;;31.90;;
5702;SDS011;2876;51.738;10.050;2022-11-30T23:31:00;83.03;;;31.00;;
5702;SDS011;2876;51.738;10.050;2022-11-30T23:37:03;91.50;;;33.93;;
5702;SDS011;2876;51.738;10.050;2022-11-30T23:43:05;102.73;;;33.60;;
5702;SDS011;2876;51.738;10.050;2022-11-30T23:49:07;93.37;;;33.47;;
5702;SDS011;2876;51.738;10.050;2022-11-30T23:55:12;97.60;;;34.30;;
